Time;durP1;ratioP1;P1;durP2;ratioP2;P2;SDS_P1;SDS_P2;PMS_P1;PMS_P2;Temp;Humidity;BMP_temperature;BMP_pressure;BME280_temperature;BME280_humidity;BME280_pressure;Samples;Min_cycle;Max_cycle;Signal;HPM_P1;HPM_P2
2022/04/29 00:07:25;;;;;;;4.03;2.92;;;6.60;99.90;;;;;;21075878;28;20039;-50
2022/04/29 00:17:27;;;;;;;5.55;3.00;;;6.10;99.90;;;;;;21074604;28;20031;-51
2022/04/29 00:27:30;;;;;;;5.28;3.20;;;5.80;99.90;;;;;;21074105;28;20089;-49
2022/04/29 00:37:32;;;;;;;5.53;3.58;;;5.60;99.90;;;;;;21055728;28;20086;-52
2022/04/29 00:47:35;;;;;;;4.75;2.88;;;5.40;99.90;;;;;;21143845;28;20101;-52
2022/04/29 00:57:44;;;;;;;4.38;3.10;;;5.50;99.90;;;;;;21138181;28;20484;-51
2022/04/29 01:07:49;;;;;;;5.00;2.88;;;6.00;99.90;;;;;;21136240;28;20035;-52
2022/04/29 01:17:55;;;;;;;4.50;3.30;;;6.40;99.90;;;;;;21136097;28;20032;-51
2022/04/29 01:27:57;;;;;;;5.55;3.25;;;6.60;99.90;;;;;;21135726;28;20031;-52
2022/04/29 01:38:01;;;;;;;6.35;4.50;;;6.60;99.90;;;;;;21134610;28;20053;-53
2022/04/29 01:48:04;;;;;;;7.18;4.45;;;6.60;99.90;;;;;;21066255;28;20078;-52
2022/04/29 01:58:19;;;;;;;6.28;4.28;;;6.70;99.90;;;;;;21065846;28;20097;-52
2022/04/29 02:08:22;;;;;;;9.38;4.20;;;6.70;99.90;;;;;;21048210;28;20405;-53
2022/04/29 02:18:25;;;;;;;5.55;3.70;;;6.90;99.90;;;;;;21063623;28;20043;-50
2022/04/29 02:28:27;;;;;;;6.10;3.20;;;6.90;99.90;;;;;;21063530;28;20036;-51
2022/04/29 02:38:30;;;;;;;5.43;3.13;;;6.90;99.90;;;;;;21062707;28;20036;-57
2022/04/29 02:48:32;;;;;;;4.03;2.90;;;6.80;99.90;;;;;;21145526;27;20047;-48
2022/04/29 02:58:36;;;;;;;5.55;2.80;;;6.80;99.90;;;;;;21208951;27;20084;-51
2022/04/29 03:08:39;;;;;;;3.50;2.42;;;6.70;99.90;;;;;;21160566;27;20035;-52
2022/04/29 03:18:44;;;;;;;3.90;2.30;;;6.80;99.90;;;;;;21127858;28;20032;-50
2022/04/29 03:28:47;;;;;;;4.53;2.33;;;6.80;99.90;;;;;;21127451;28;20040;-50
2022/04/29 03:38:50;;;;;;;3.67;2.38;;;6.80;99.90;;;;;;21138150;27;20479;-50
2022/04/29 03:59:24;;;;;;;4.28;2.20;;;6.70;99.90;;;;;;21151402;27;20080;-52
2022/04/29 04:09:26;;;;;;;3.40;1.90;;;6.70;99.90;;;;;;21163718;27;20043;-57
2022/04/29 04:19:35;;;;;;;3.42;2.40;;;6.70;99.90;;;;;;21124104;28;20077;-53
2022/04/29 04:29:38;;;;;;;4.18;2.30;;;6.60;99.90;;;;;;21202882;27;20035;-50
2022/04/29 04:39:41;;;;;;;4.38;2.53;;;6.50;99.90;;;;;;21159266;27;20047;-52
2022/04/29 04:49:48;;;;;;;3.20;2.10;;;6.40;99.90;;;;;;21187685;27;20035;-58
2022/04/29 04:59:58;;;;;;;2.57;2.00;;;6.50;99.90;;;;;;21222850;27;20509;-57
2022/04/29 05:10:03;;;;;;;3.10;2.15;;;6.70;99.90;;;;;;21171155;27;20069;-49
2022/04/29 05:20:11;;;;;;;2.58;1.85;;;7.00;99.90;;;;;;21220546;27;20039;-52
2022/04/29 05:30:17;;;;;;;4.20;1.83;;;7.40;99.90;;;;;;21152955;27;20081;-50
2022/04/29 05:50:59;;;;;;;4.65;2.40;;;7.90;99.90;;;;;;21148017;27;20139;-57
2022/04/29 06:01:04;;;;;;;2.97;1.90;;;8.10;99.90;;;;;;21160724;27;20088;-51
2022/04/29 06:11:08;;;;;;;4.05;2.15;;;8.10;99.90;;;;;;21132475;28;20031;-57
2022/04/29 06:21:10;;;;;;;3.25;2.30;;;8.10;99.90;;;;;;21131190;28;20070;-59
2022/04/29 06:31:24;;;;;;;5.45;1.65;;;8.00;99.90;;;;;;21166050;27;20167;-53
2022/04/29 06:41:53;;;;;;;3.15;1.98;;;10.70;99.90;;;;;;21192319;27;20561;-52
2022/04/29 06:52:27;;;;;;;4.07;1.60;;;12.90;97.40;;;;;;21197873;27;20038;-53
2022/04/29 07:02:43;;;;;;;4.97;2.60;;;13.30;96.10;;;;;;21212756;27;20043;-54
2022/04/29 07:12:47;;;;;;;4.55;2.08;;;13.80;94.70;;;;;;21121752;28;20061;-54
2022/04/29 07:22:49;;;;;;;2.55;2.33;;;14.40;94.00;;;;;;21174342;27;20035;-55
2022/04/29 07:32:54;;;;;;;2.88;2.25;;;15.20;91.80;;;;;;21196249;28;20084;-57
2022/04/29 07:43:36;;;;;;;4.60;2.50;;;14.90;92.50;;;;;;20931971;28;20064;-56
2022/04/29 07:53:39;;;;;;;3.40;2.10;;;15.90;91.00;;;;;;20866421;28;20102;-56
2022/04/29 08:03:43;;;;;;;13.75;2.90;;;15.60;89.10;;;;;;20867954;28;20060;-55
2022/04/29 08:13:49;;;;;;;3.00;2.35;;;15.60;90.00;;;;;;21016197;28;20104;-57
2022/04/29 08:24:26;;;;;;;3.28;2.47;;;15.80;90.50;;;;;;21072764;28;20044;-60
2022/04/29 08:34:30;;;;;;;2.63;2.03;;;16.00;88.50;;;;;;21072833;28;20093;-56
2022/04/29 08:44:36;;;;;;;3.70;1.95;;;15.90;91.10;;;;;;21140765;27;20040;-61
2022/04/29 09:05:33;;;;;;;3.47;2.60;;;16.20;86.90;;;;;;20809048;28;20486;-61
2022/04/29 09:15:37;;;;;;;3.58;2.53;;;15.50;83.30;;;;;;20795368;28;20529;-61
2022/04/29 09:25:40;;;;;;;3.03;2.05;;;15.20;82.50;;;;;;20894490;28;20505;-62
2022/04/29 09:36:01;;;;;;;4.18;2.17;;;15.50;91.80;;;;;;21202711;27;20096;-62
2022/04/29 09:46:12;;;;;;;3.20;2.13;;;16.30;90.80;;;;;;21188476;27;20073;-56
2022/04/29 09:56:14;;;;;;;3.58;2.35;;;16.70;90.30;;;;;;21153076;27;20432;-62
2022/04/29 10:06:20;;;;;;;3.03;1.90;;;16.50;90.70;;;;;;21191701;27;20088;-62
2022/04/29 10:16:27;;;;;;;3.22;2.40;;;16.60;89.60;;;;;;21217033;27;20035;-56
2022/04/29 10:26:52;;;;;;;3.90;2.35;;;17.20;87.00;;;;;;21131796;28;20043;-63
2022/04/29 10:36:58;;;;;;;4.97;2.17;;;17.50;85.20;;;;;;21130812;28;20073;-62
2022/04/29 10:47:25;;;;;;;3.38;2.50;;;17.40;89.30;;;;;;21155735;27;20043;-55
2022/04/29 10:57:52;;;;;;;4.53;2.03;;;17.30;90.30;;;;;;21127959;27;20042;-60
2022/04/29 11:08:10;;;;;;;4.43;2.70;;;17.20;87.90;;;;;;21166014;27;20031;-55
2022/04/29 11:18:19;;;;;;;5.20;2.67;;;17.20;89.20;;;;;;21213800;27;20080;-56
2022/04/29 11:28:24;;;;;;;4.93;2.67;;;17.20;88.90;;;;;;21145055;28;20039;-64
2022/04/29 11:38:51;;;;;;;4.30;2.65;;;17.20;87.70;;;;;;21137667;28;20068;-63
2022/04/29 11:48:57;;;;;;;4.68;3.25;;;17.50;86.80;;;;;;21059107;28;20060;-55
2022/04/29 11:59:00;;;;;;;3.95;3.33;;;17.30;88.60;;;;;;21074277;28;20546;-64
2022/04/29 12:09:02;;;;;;;3.95;3.55;;;17.50;90.80;;;;;;21074717;28;20073;-64
2022/04/29 12:19:15;;;;;;;4.32;3.30;;;17.70;90.40;;;;;;21074092;28;20397;-62
2022/04/29 12:29:18;;;;;;;7.05;3.60;;;17.60;90.60;;;;;;21073258;28;20031;-63
2022/04/29 12:39:39;;;;;;;5.75;3.92;;;17.30;90.10;;;;;;21078182;27;20047;-55
2022/04/29 12:49:41;;;;;;;6.10;4.10;;;17.40;90.00;;;;;;21212591;27;20038;-56
2022/04/29 12:59:45;;;;;;;4.25;3.70;;;17.50;90.50;;;;;;21199901;27;20442;-57
2022/04/29 13:09:48;;;;;;;6.40;4.35;;;17.40;90.80;;;;;;21138133;28;20329;-63
2022/04/29 13:19:50;;;;;;;6.55;4.70;;;17.50;88.80;;;;;;21119867;28;20050;-62
2022/04/29 13:29:53;;;;;;;6.60;4.40;;;17.50;89.40;;;;;;21135644;28;20043;-63
2022/04/29 13:40:00;;;;;;;6.13;4.57;;;17.60;89.40;;;;;;21134846;28;20039;-62
2022/04/29 13:50:04;;;;;;;5.00;4.18;;;17.80;90.90;;;;;;21146452;27;20113;-61
2022/04/29 14:00:13;;;;;;;11.15;4.75;;;17.90;87.60;;;;;;21136105;28;20133;-61
2022/04/29 14:10:15;;;;;;;7.25;4.22;;;17.70;87.00;;;;;;21192857;27;20068;-56
2022/04/29 14:20:17;;;;;;;7.13;4.47;;;17.80;89.20;;;;;;21215999;27;20035;-62
2022/04/29 14:30:21;;;;;;;7.57;5.30;;;17.80;90.30;;;;;;21215665;27;20544;-57
2022/04/29 14:40:23;;;;;;;6.78;5.18;;;17.80;85.80;;;;;;21169708;27;20557;-56
2022/04/29 14:50:26;;;;;;;5.32;4.85;;;17.70;87.00;;;;;;21129661;28;20101;-61
2022/04/29 15:00:29;;;;;;;5.80;4.88;;;17.60;85.00;;;;;;21145614;27;20495;-61
2022/04/29 15:20:52;;;;;;;6.68;5.25;;;17.60;85.30;;;;;;21140848;27;20039;-60
2022/04/29 15:30:55;;;;;;;7.10;5.82;;;17.40;85.30;;;;;;21211017;27;20498;-60
2022/04/29 15:40:57;;;;;;;6.57;5.40;;;17.30;85.00;;;;;;21177577;28;20040;-54
2022/04/29 15:51:03;;;;;;;7.90;5.57;;;18.40;84.00;;;;;;21111469;28;20488;-61
2022/04/29 16:01:05;;;;;;;8.75;5.60;;;18.80;82.50;;;;;;21126510;28;20040;-60
2022/04/29 16:11:10;;;;;;;7.45;6.07;;;18.50;80.30;;;;;;21174025;28;20097;-54
2022/04/29 16:21:12;;;;;;;8.98;6.05;;;17.40;81.90;;;;;;21126108;28;20028;-51
2022/04/29 16:31:15;;;;;;;8.75;5.78;;;15.60;85.40;;;;;;21120099;28;20533;-53
2022/04/29 16:41:17;;;;;;;6.72;5.35;;;13.90;91.30;;;;;;21141641;27;20047;-60
2022/04/29 16:51:21;;;;;;;10.13;6.10;;;12.50;93.20;;;;;;21140457;28;20096;-59
2022/04/29 17:01:26;;;;;;;10.10;6.10;;;11.50;94.40;;;;;;21144603;27;20031;-59
2022/04/29 17:11:28;;;;;;;10.00;6.60;;;10.70;95.00;;;;;;21156193;27;20036;-58
2022/04/29 17:21:31;;;;;;;10.57;7.00;;;10.00;96.50;;;;;;21144905;27;20438;-53
2022/04/29 17:31:34;;;;;;;10.07;6.28;;;9.50;99.10;;;;;;21220522;27;20072;-52
2022/04/29 17:52:21;;;;;;;16.92;9.50;;;8.40;99.90;;;;;;20956462;28;20129;-58
2022/04/29 18:02:23;;;;;;;12.18;8.35;;;8.00;99.90;;;;;;20956392;28;20553;-58
2022/04/29 18:12:26;;;;;;;13.32;9.85;;;7.60;99.90;;;;;;20955725;28;20122;-53
2022/04/29 18:22:28;;;;;;;16.35;10.20;;;7.30;99.90;;;;;;21100633;28;20043;-49
2022/04/29 18:32:31;;;;;;;16.90;10.77;;;7.00;99.90;;;;;;21212974;27;20171;-50
2022/04/29 18:42:40;;;;;;;14.88;10.13;;;6.80;99.90;;;;;;21149442;27;20052;-49
2022/04/29 18:52:44;;;;;;;17.50;9.88;;;6.70;99.90;;;;;;21129132;28;20084;-52
2022/04/29 19:02:47;;;;;;;17.58;10.75;;;6.50;99.90;;;;;;21127605;28;20035;-56
2022/04/29 19:12:49;;;;;;;15.70;10.52;;;6.40;99.90;;;;;;21110506;28;20549;-48
2022/04/29 19:22:52;;;;;;;21.90;11.68;;;6.30;99.90;;;;;;21182736;27;20534;-51
2022/04/29 19:32:56;;;;;;;15.85;10.35;;;6.20;99.90;;;;;;21211624;27;20556;-52
2022/04/29 19:43:01;;;;;;;15.35;9.23;;;6.30;99.90;;;;;;21141648;28;20059;-57
2022/04/29 19:53:08;;;;;;;15.40;9.43;;;6.10;99.90;;;;;;21124920;28;20096;-53
2022/04/29 20:13:36;;;;;;;19.10;10.40;;;5.80;99.90;;;;;;21125170;28;20089;-54
2022/04/29 20:23:38;;;;;;;14.88;9.48;;;5.70;99.90;;;;;;21140355;28;20167;-51
2022/04/29 20:33:41;;;;;;;16.40;9.90;;;5.30;99.90;;;;;;21123091;28;20040;-55
2022/04/29 20:44:02;;;;;;;17.02;11.40;;;5.40;99.90;;;;;;21138245;28;20048;-54
2022/04/29 20:54:06;;;;;;;17.17;11.07;;;5.30;99.90;;;;;;21123903;28;20039;-51
2022/04/29 21:04:11;;;;;;;19.85;11.25;;;5.20;99.90;;;;;;21137251;27;20028;-56
2022/04/29 21:14:14;;;;;;;19.38;11.60;;;5.00;99.90;;;;;;21136652;28;20484;-47
2022/04/29 21:24:17;;;;;;;18.55;11.10;;;5.00;99.90;;;;;;21135661;28;20226;-49
2022/04/29 21:34:20;;;;;;;19.13;11.27;;;5.00;99.90;;;;;;21135386;28;20100;-49
2022/04/29 21:44:22;;;;;;;16.40;10.65;;;5.00;99.90;;;;;;21134454;28;20077;-50
2022/04/29 21:54:28;;;;;;;19.10;12.18;;;5.10;99.90;;;;;;21133584;28;20036;-47
2022/04/29 22:04:31;;;;;;;21.35;10.73;;;5.00;99.90;;;;;;21133398;28;20484;-51
2022/04/29 22:14:33;;;;;;;20.27;12.35;;;4.90;99.90;;;;;;21214007;27;20103;-49
2022/04/29 22:24:36;;;;;;;22.15;12.13;;;4.80;99.90;;;;;;21216425;27;20079;-52
2022/04/29 22:34:39;;;;;;;17.65;11.20;;;4.80;99.90;;;;;;21214604;27;20206;-49
2022/04/29 22:44:43;;;;;;;25.92;12.50;;;4.70;99.90;;;;;;21132146;28;20044;-51
2022/04/29 22:54:46;;;;;;;18.27;11.45;;;4.70;99.90;;;;;;21129849;27;20491;-48
2022/04/29 23:04:49;;;;;;;17.73;10.25;;;4.80;99.90;;;;;;21128659;28;20035;-56
2022/04/29 23:14:53;;;;;;;14.73;9.60;;;4.90;99.90;;;;;;21128325;28;20553;-48
2022/04/29 23:24:55;;;;;;;14.77;9.25;;;5.00;99.90;;;;;;21127601;28;20031;-48
2022/04/29 23:34:58;;;;;;;16.63;10.75;;;5.00;99.90;;;;;;21127358;28;20529;-53
2022/04/29 23:45:00;;;;;;;16.27;8.90;;;5.00;99.90;;;;;;21126491;28;20092;-48
2022/04/29 23:55:05;;;;;;;12.73;6.85;;;5.00;99.90;;;;;;21160857;28;20534;-49
